createdAt,value
2023-05-08T00:00:49.706Z,8.14
2023-05-08T00:03:17.180Z,8.07
2023-05-08T00:05:44.306Z,8.13
2023-05-08T00:08:11.357Z,8.11
2023-05-08T00:10:38.722Z,8.19
2023-05-08T00:13:06.037Z,8.32
2023-05-08T00:15:33.127Z,8.33
2023-05-08T00:18:01.101Z,8.20
2023-05-08T00:20:29.006Z,8.13
2023-05-08T00:22:57.889Z,8.02
2023-05-08T00:25:25.539Z,8.08
2023-05-08T00:27:52.599Z,8.05
2023-05-08T00:30:19.916Z,8.00
2023-05-08T00:32:47.446Z,7.93
2023-05-08T00:35:14.616Z,7.89
2023-05-08T00:37:43.696Z,7.86
2023-05-08T00:40:12.265Z,7.84
2023-05-08T00:42:39.814Z,7.82
2023-05-08T00:45:07.799Z,7.83
2023-05-08T00:47:35.578Z,7.86
2023-05-08T00:50:03.089Z,7.91
2023-05-08T00:52:32.853Z,7.88
2023-05-08T00:55:02.268Z,7.84
2023-05-08T00:57:32.449Z,7.82
2023-05-08T01:00:01.741Z,7.85
2023-05-08T01:02:31.637Z,7.89
2023-05-08T01:04:59.043Z,7.90
2023-05-08T01:07:27.554Z,7.94
2023-05-08T01:09:54.759Z,7.91
2023-05-08T01:12:30.075Z,7.83
2023-05-08T01:15:14.574Z,7.77
2023-05-08T01:17:56.331Z,7.78
2023-05-08T01:20:27.328Z,7.70
2023-05-08T01:23:31.924Z,7.63
2023-05-08T01:26:23.601Z,7.62
2023-05-08T01:29:27.818Z,7.62
2023-05-08T01:32:16.877Z,7.59
2023-05-08T01:34:51.502Z,7.57
2023-05-08T01:37:30.178Z,7.57
2023-05-08T01:40:08.129Z,7.70
2023-05-08T01:42:48.098Z,7.86
2023-05-08T01:45:23.400Z,7.82
2023-05-08T01:48:00.917Z,7.71
2023-05-08T01:50:35.634Z,7.65
2023-05-08T01:53:08.861Z,7.54
2023-05-08T01:55:37.651Z,7.49
2023-05-08T01:58:09.762Z,7.44
2023-05-08T02:00:40.233Z,7.31
2023-05-08T02:03:09.480Z,7.32
2023-05-08T02:05:40.358Z,7.39
2023-05-08T02:08:11.340Z,7.31
2023-05-08T02:10:40.085Z,7.29
2023-05-08T02:13:10.327Z,7.33
2023-05-08T02:15:39.637Z,7.41
2023-05-08T02:18:09.217Z,7.35
2023-05-08T02:20:38.673Z,7.18
2023-05-08T02:23:06.686Z,7.14
2023-05-08T02:25:35.681Z,7.15
2023-05-08T02:28:03.534Z,7.08
2023-05-08T02:30:31.146Z,7.10
2023-05-08T02:33:00.818Z,7.05
2023-05-08T02:35:31.493Z,7.09
2023-05-08T02:38:00.678Z,7.00
2023-05-08T02:40:29.727Z,6.98
2023-05-08T02:42:57.673Z,6.98
2023-05-08T02:45:28.889Z,7.03
2023-05-08T02:48:53.102Z,6.93
2023-05-08T02:51:37.954Z,6.86
2023-05-08T02:54:09.224Z,6.86
2023-05-08T02:56:48.566Z,6.85
2023-05-08T02:59:54.238Z,6.79
2023-05-08T03:02:24.574Z,6.76
2023-05-08T03:05:00.203Z,6.80
2023-05-08T03:07:33.798Z,6.80
2023-05-08T03:10:05.399Z,6.76
2023-05-08T03:12:36.305Z,6.89
2023-05-08T03:15:21.561Z,6.82
2023-05-08T03:17:54.783Z,6.90
2023-05-08T03:20:24.886Z,6.86
2023-05-08T03:22:54.179Z,6.92
2023-05-08T03:25:22.418Z,6.92
2023-05-08T03:27:52.042Z,6.93
2023-05-08T03:30:20.901Z,6.98
2023-05-08T03:32:53.206Z,7.04
2023-05-08T03:35:22.204Z,7.10
2023-05-08T03:37:49.410Z,7.18
2023-05-08T03:40:16.559Z,7.32
2023-05-08T03:42:44.494Z,7.29
2023-05-08T03:45:14.125Z,7.21
2023-05-08T03:47:42.486Z,7.11
2023-05-08T03:50:11.018Z,7.16
2023-05-08T03:52:38.535Z,7.31
2023-05-08T03:55:06.371Z,7.24
2023-05-08T03:57:57.956Z,7.20
2023-05-08T04:01:06.885Z,7.23
2023-05-08T04:03:46.586Z,7.39
2023-05-08T04:06:30.717Z,7.51
2023-05-08T04:09:08.097Z,7.62
2023-05-08T04:11:35.114Z,7.95
2023-05-08T04:14:07.099Z,8.05
2023-05-08T04:16:48.345Z,8.27
2023-05-08T04:19:22.329Z,8.32
2023-05-08T04:21:51.302Z,8.37
2023-05-08T04:24:20.165Z,8.55
2023-05-08T04:26:48.683Z,8.82
2023-05-08T04:29:17.046Z,8.85
2023-05-08T04:31:45.470Z,8.99
2023-05-08T04:34:12.796Z,9.11
2023-05-08T04:36:40.413Z,9.27
2023-05-08T04:39:08.018Z,9.45
2023-05-08T04:41:35.624Z,9.51
2023-05-08T04:44:04.430Z,9.54
2023-05-08T04:46:31.924Z,9.59
2023-05-08T04:48:59.143Z,9.78
2023-05-08T04:51:28.056Z,9.95
2023-05-08T04:53:55.945Z,10.19
2023-05-08T04:56:23.073Z,10.28
2023-05-08T04:58:51.149Z,10.40
2023-05-08T05:01:19.819Z,10.59
2023-05-08T05:03:47.096Z,10.64
2023-05-08T05:06:14.167Z,10.78
2023-05-08T05:08:43.495Z,10.77
2023-05-08T05:11:10.731Z,10.61
2023-05-08T05:13:37.881Z,10.83
2023-05-08T05:16:05.752Z,10.95
2023-05-08T05:18:33.001Z,10.87
2023-05-08T05:21:00.159Z,10.97
2023-05-08T05:23:28.579Z,11.05
2023-05-08T05:25:55.852Z,11.08
2023-05-08T05:28:24.597Z,11.09
2023-05-08T05:30:52.315Z,11.23
2023-05-08T05:33:19.413Z,11.27
2023-05-08T05:35:46.942Z,11.46
2023-05-08T05:38:14.335Z,11.73
2023-05-08T05:40:41.419Z,11.84
2023-05-08T05:43:08.576Z,11.97
2023-05-08T05:45:36.277Z,12.09
2023-05-08T05:48:03.695Z,12.15
2023-05-08T05:50:31.512Z,12.18
2023-05-08T05:52:59.620Z,12.28
2023-05-08T05:55:26.945Z,12.52
2023-05-08T05:57:54.025Z,12.56
2023-05-08T06:00:22.219Z,12.65
2023-05-08T06:02:49.906Z,12.81
2023-05-08T06:05:19.059Z,12.90
2023-05-08T06:07:46.457Z,12.87
2023-05-08T06:10:13.889Z,13.10
2023-05-08T06:12:41.877Z,13.03
2023-05-08T06:15:09.978Z,13.05
2023-05-08T06:17:37.540Z,13.03
2023-05-08T06:20:05.506Z,13.14
2023-05-08T06:22:32.605Z,13.39
2023-05-08T06:24:59.988Z,13.41
2023-05-08T06:27:27.094Z,13.59
2023-05-08T06:29:54.262Z,13.61
2023-05-08T06:32:22.373Z,13.58
2023-05-08T06:34:49.551Z,13.59
2023-05-08T06:37:16.671Z,13.77
2023-05-08T06:39:44.172Z,13.92
2023-05-08T06:42:11.390Z,14.23
2023-05-08T06:44:38.795Z,14.07
2023-05-08T06:47:06.716Z,14.24
2023-05-08T06:49:36.070Z,14.36
2023-05-08T06:52:03.541Z,14.40
2023-05-08T06:54:30.976Z,14.27
2023-05-08T06:56:58.104Z,14.50
2023-05-08T06:59:25.331Z,14.69
2023-05-08T07:01:52.726Z,14.89
2023-05-08T07:04:19.955Z,14.82
2023-05-08T07:06:47.000Z,14.90
2023-05-08T07:09:15.015Z,15.04
2023-05-08T07:11:42.391Z,15.05
2023-05-08T07:14:09.474Z,15.09
2023-05-08T07:16:37.837Z,15.46
2023-05-08T07:19:05.165Z,15.91
2023-05-08T07:21:32.364Z,15.97
2023-05-08T07:23:59.782Z,16.22
2023-05-08T07:26:27.403Z,16.62
2023-05-08T07:28:54.548Z,17.34
2023-05-08T07:31:22.221Z,17.35
2023-05-08T07:33:49.451Z,17.57
2023-05-08T07:36:16.791Z,17.75
2023-05-08T07:38:44.259Z,18.12
2023-05-08T07:41:11.616Z,18.39
2023-05-08T07:43:39.706Z,18.10
2023-05-08T07:46:07.494Z,18.22
2023-05-08T07:48:34.526Z,19.38
2023-05-08T07:51:01.709Z,20.18
2023-05-08T07:53:29.091Z,21.47
2023-05-08T07:55:56.175Z,21.63
2023-05-08T07:58:23.874Z,21.60
2023-05-08T08:00:51.389Z,21.47
2023-05-08T08:03:18.735Z,21.82
2023-05-08T08:05:45.924Z,22.10
2023-05-08T08:08:13.012Z,22.74
2023-05-08T08:10:40.422Z,21.64
2023-05-08T08:13:07.592Z,21.98
2023-05-08T08:15:34.641Z,22.29
2023-05-08T08:18:02.094Z,22.06
2023-05-08T08:20:29.462Z,22.12
2023-05-08T08:22:56.597Z,21.73
2023-05-08T08:25:24.553Z,21.81
2023-05-08T08:27:51.804Z,21.95
2023-05-08T08:30:19.117Z,22.03
2023-05-08T08:32:46.871Z,21.75
2023-05-08T08:35:14.552Z,22.47
2023-05-08T08:37:42.080Z,22.45
2023-05-08T08:40:10.027Z,22.45
2023-05-08T08:42:37.138Z,22.50
2023-05-08T08:45:04.557Z,22.70
2023-05-08T08:47:41.308Z,21.99
2023-05-08T08:50:12.726Z,21.53
2023-05-08T08:52:54.428Z,21.77
2023-05-08T08:55:23.553Z,22.06
2023-05-08T08:58:07.736Z,21.63
2023-05-08T09:00:37.302Z,21.42
2023-05-08T09:03:09.380Z,21.63
2023-05-08T09:05:37.028Z,21.20
2023-05-08T09:08:05.501Z,21.19
2023-05-08T09:10:32.868Z,21.14
2023-05-08T09:13:00.124Z,21.40
2023-05-08T09:15:27.917Z,21.82
2023-05-08T09:17:55.045Z,21.91
2023-05-08T09:20:22.872Z,21.91
2023-05-08T09:22:52.833Z,21.98
2023-05-08T09:25:20.188Z,21.86
2023-05-08T09:27:47.223Z,21.57
2023-05-08T09:30:14.701Z,21.66
2023-05-08T09:32:44.544Z,21.63
2023-05-08T09:35:13.286Z,21.66
2023-05-08T09:37:44.171Z,21.36
2023-05-08T09:40:22.316Z,21.42
2023-05-08T09:42:51.608Z,21.50
2023-05-08T09:45:32.782Z,21.67
2023-05-08T09:48:00.281Z,22.05
2023-05-08T09:50:27.839Z,22.67
2023-05-08T09:52:55.465Z,22.04
2023-05-08T09:55:22.915Z,21.80
2023-05-08T09:57:58.596Z,21.61
2023-05-08T10:00:27.533Z,22.01
2023-05-08T10:03:01.523Z,22.17
2023-05-08T10:05:31.833Z,22.11
2023-05-08T10:08:18.679Z,22.40
2023-05-08T10:10:46.115Z,22.55
2023-05-08T10:13:14.027Z,22.69
2023-05-08T10:15:43.113Z,22.44
2023-05-08T10:18:12.201Z,22.41
2023-05-08T10:20:42.449Z,22.35
2023-05-08T10:23:14.555Z,22.78
2023-05-08T10:25:46.759Z,22.48
2023-05-08T10:28:23.363Z,22.00
2023-05-08T10:30:52.092Z,22.38
2023-05-08T10:33:21.563Z,22.33
2023-05-08T10:35:49.139Z,22.33
2023-05-08T10:38:17.228Z,21.91
2023-05-08T10:40:45.001Z,21.94
2023-05-08T10:43:12.617Z,21.99
2023-05-08T10:45:40.389Z,22.22
2023-05-08T10:48:35.906Z,22.64
2023-05-08T10:51:10.148Z,22.54
2023-05-08T10:53:42.689Z,22.92
2023-05-08T10:56:10.564Z,22.81
2023-05-08T10:58:39.393Z,22.14
2023-05-08T11:01:09.388Z,22.17
2023-05-08T11:03:45.505Z,21.86
2023-05-08T11:06:13.674Z,22.01
2023-05-08T11:08:47.871Z,22.14
2023-05-08T11:11:23.972Z,22.23
2023-05-08T11:13:56.572Z,21.81
2023-05-08T11:16:54.958Z,21.76
2023-05-08T11:19:24.695Z,21.61
2023-05-08T11:22:14.663Z,22.00
2023-05-08T11:25:00.391Z,21.89
2023-05-08T11:27:49.149Z,21.53
2023-05-08T11:30:37.246Z,21.69
2023-05-08T11:33:04.691Z,22.49
2023-05-08T11:35:41.572Z,22.67
2023-05-08T11:38:24.082Z,22.46
2023-05-08T11:41:03.236Z,22.45
2023-05-08T11:43:33.412Z,22.13
2023-05-08T11:46:04.303Z,22.23
2023-05-08T11:48:32.767Z,22.41
2023-05-08T11:51:00.588Z,22.08
2023-05-08T11:53:28.912Z,21.80
2023-05-08T11:55:56.165Z,22.31
2023-05-08T11:58:23.373Z,22.13
2023-05-08T12:00:50.948Z,22.09
2023-05-08T12:03:20.685Z,21.97
2023-05-08T12:05:49.559Z,21.57
2023-05-08T12:08:18.198Z,21.57
2023-05-08T12:10:52.582Z,21.68
2023-05-08T12:13:22.202Z,21.82
2023-05-08T12:15:55.220Z,22.20
2023-05-08T12:18:23.621Z,21.87
2023-05-08T12:20:57.081Z,21.94
2023-05-08T12:23:29.549Z,22.01
2023-05-08T12:26:01.895Z,22.04
2023-05-08T12:28:29.732Z,21.96
2023-05-08T12:30:57.316Z,21.77
2023-05-08T12:33:25.285Z,21.84
2023-05-08T12:35:52.492Z,22.04
2023-05-08T12:38:19.813Z,22.10
2023-05-08T12:40:53.097Z,22.09
2023-05-08T12:43:20.477Z,21.92
2023-05-08T12:45:52.582Z,22.09
2023-05-08T12:48:20.559Z,22.45
2023-05-08T12:50:47.942Z,22.30
2023-05-08T12:53:21.733Z,21.97
2023-05-08T12:55:55.695Z,21.69
2023-05-08T12:58:31.023Z,21.86
2023-05-08T13:01:13.285Z,21.61
2023-05-08T13:03:41.488Z,21.89
2023-05-08T13:06:21.121Z,22.10
2023-05-08T13:08:55.015Z,21.87
2023-05-08T13:11:31.438Z,21.63
2023-05-08T13:13:58.683Z,21.43
2023-05-08T13:16:26.488Z,21.57
2023-05-08T13:18:53.637Z,21.53
2023-05-08T13:21:20.873Z,21.55
2023-05-08T13:23:48.231Z,21.64
2023-05-08T13:26:15.235Z,21.44
2023-05-08T13:28:42.364Z,21.68
2023-05-08T13:31:09.636Z,21.80
2023-05-08T13:33:38.265Z,22.09
2023-05-08T13:36:05.454Z,21.46
2023-05-08T13:38:32.814Z,21.35
2023-05-08T13:40:59.806Z,21.16
2023-05-08T13:43:26.907Z,21.23
2023-05-08T13:45:54.377Z,21.19
2023-05-08T13:48:21.424Z,21.10
2023-05-08T13:50:48.526Z,21.17
2023-05-08T13:53:15.884Z,21.34
2023-05-08T13:55:42.922Z,21.28
2023-05-08T13:58:09.997Z,21.28
2023-05-08T14:00:37.324Z,21.02
2023-05-08T14:03:04.814Z,20.67
2023-05-08T14:05:32.517Z,20.66
2023-05-08T14:07:59.574Z,20.70
2023-05-08T14:10:27.218Z,20.62
2023-05-08T14:12:54.311Z,20.49
2023-05-08T14:15:22.164Z,20.53
2023-05-08T14:17:50.761Z,20.49
2023-05-08T14:20:17.885Z,20.72
2023-05-08T14:22:46.207Z,20.83
2023-05-08T14:25:14.966Z,20.67
2023-05-08T14:27:42.212Z,20.49
2023-05-08T14:30:09.881Z,20.50
2023-05-08T14:32:37.335Z,20.46
2023-05-08T14:35:04.532Z,20.43
2023-05-08T14:37:31.646Z,20.52
2023-05-08T14:39:59.483Z,20.49
2023-05-08T14:42:26.682Z,20.37
2023-05-08T14:44:53.947Z,19.89
2023-05-08T14:47:21.467Z,19.53
2023-05-08T14:49:48.486Z,19.51
2023-05-08T14:52:15.895Z,19.38
2023-05-08T14:54:43.455Z,19.15
2023-05-08T14:57:10.758Z,18.92
2023-05-08T14:59:43.555Z,18.85
2023-05-08T15:02:18.103Z,18.95
2023-05-08T15:04:46.092Z,18.93
2023-05-08T15:07:13.204Z,19.00
2023-05-08T15:09:40.639Z,19.07
2023-05-08T15:12:07.818Z,19.17
2023-05-08T15:14:34.941Z,19.17
2023-05-08T15:17:02.502Z,19.07
2023-05-08T15:19:29.480Z,19.05
2023-05-08T15:21:56.505Z,19.11
2023-05-08T15:24:23.819Z,18.93
2023-05-08T15:26:50.908Z,18.73
2023-05-08T15:29:18.018Z,18.66
2023-05-08T15:31:45.360Z,18.59
2023-05-08T15:34:12.591Z,18.55
2023-05-08T15:36:39.661Z,18.49
2023-05-08T15:39:07.025Z,18.39
2023-05-08T15:41:34.295Z,18.38
2023-05-08T15:44:01.688Z,18.42
2023-05-08T15:46:29.135Z,18.46
2023-05-08T15:48:56.210Z,18.52
2023-05-08T15:51:23.343Z,18.57
2023-05-08T15:53:52.286Z,18.58
2023-05-08T15:56:24.574Z,18.47
2023-05-08T15:58:52.708Z,18.50
2023-05-08T16:01:20.740Z,18.52
2023-05-08T16:03:48.134Z,18.58
2023-05-08T16:06:15.151Z,18.51
2023-05-08T16:08:42.145Z,18.42
2023-05-08T16:11:09.534Z,18.38
2023-05-08T16:13:36.570Z,18.31
2023-05-08T16:16:05.258Z,18.23
2023-05-08T16:18:32.690Z,18.20
2023-05-08T16:20:59.779Z,18.19
2023-05-08T16:25:54.672Z,18.17
2023-05-08T16:28:21.906Z,18.04
2023-05-08T16:30:48.959Z,18.05
2023-05-08T16:33:16.213Z,18.03
2023-05-08T16:35:43.306Z,18.07
2023-05-08T16:38:10.430Z,18.09
2023-05-08T16:40:37.742Z,18.05
2023-05-08T16:43:04.889Z,17.95
2023-05-08T16:45:32.009Z,17.84
2023-05-08T16:47:59.442Z,17.86
2023-05-08T16:50:26.524Z,17.80
2023-05-08T16:52:53.566Z,17.88
2023-05-08T16:55:20.976Z,17.74
2023-05-08T16:57:48.077Z,17.55
2023-05-08T17:00:15.500Z,17.40
2023-05-08T17:02:43.070Z,17.31
2023-05-08T17:05:10.145Z,17.12
2023-05-08T17:07:37.226Z,16.93
2023-05-08T17:10:04.908Z,16.71
2023-05-08T17:12:31.960Z,16.52
2023-05-08T17:14:59.015Z,16.44
2023-05-08T17:17:26.449Z,16.20
2023-05-08T17:19:53.465Z,16.04
2023-05-08T17:22:20.653Z,15.90
2023-05-08T17:24:48.126Z,15.78
2023-05-08T17:27:15.154Z,15.65
2023-05-08T17:29:42.190Z,15.52
2023-05-08T17:32:09.654Z,15.35
2023-05-08T17:34:37.474Z,15.15
2023-05-08T17:37:04.596Z,15.05
2023-05-08T17:39:31.931Z,14.78
2023-05-08T17:41:58.970Z,14.63
2023-05-08T17:44:26.206Z,14.48
2023-05-08T17:46:53.477Z,14.34
2023-05-08T17:49:20.502Z,14.36
2023-05-08T17:51:47.592Z,14.24
2023-05-08T17:54:14.981Z,13.96
2023-05-08T17:56:42.071Z,13.85
2023-05-08T17:59:09.140Z,13.76
2023-05-08T18:01:36.551Z,13.58
2023-05-08T18:04:04.221Z,13.47
2023-05-08T18:06:31.487Z,13.41
2023-05-08T18:08:58.510Z,13.22
2023-05-08T18:11:27.054Z,13.14
2023-05-08T18:13:54.313Z,12.98
2023-05-08T18:16:22.354Z,12.84
2023-05-08T18:18:50.268Z,12.79
2023-05-08T18:21:17.725Z,12.72
2023-05-08T18:23:44.998Z,12.58
2023-05-08T18:26:16.839Z,12.52
2023-05-08T18:28:44.532Z,12.41
2023-05-08T18:31:13.332Z,12.32
2023-05-08T18:33:40.850Z,12.24
2023-05-08T18:36:08.058Z,12.22
2023-05-08T18:38:36.368Z,12.05
2023-05-08T18:41:05.146Z,11.99
2023-05-08T18:43:32.275Z,11.90
2023-05-08T18:46:00.585Z,11.74
2023-05-08T18:48:29.402Z,11.72
2023-05-08T18:50:58.634Z,11.57
2023-05-08T18:53:25.957Z,11.53
2023-05-08T18:55:53.373Z,11.44
2023-05-08T18:58:20.525Z,11.39
2023-05-08T19:00:47.705Z,11.32
2023-05-08T19:03:15.361Z,11.28
2023-05-08T19:05:42.512Z,11.17
2023-05-08T19:08:09.763Z,11.17
2023-05-08T19:10:37.163Z,11.06
2023-05-08T19:13:04.318Z,11.06
2023-05-08T19:15:31.437Z,11.00
2023-05-08T19:17:58.912Z,10.96
2023-05-08T19:20:26.139Z,10.92
2023-05-08T19:22:53.823Z,10.86
2023-05-08T19:25:21.791Z,10.79
2023-05-08T19:27:49.023Z,10.78
2023-05-08T19:30:16.412Z,10.77
2023-05-08T19:32:43.863Z,10.65
2023-05-08T19:35:10.970Z,10.52
2023-05-08T19:37:38.088Z,10.58
2023-05-08T19:40:06.392Z,10.62
2023-05-08T19:42:33.526Z,10.48
2023-05-08T19:45:01.316Z,10.43
2023-05-08T19:47:28.745Z,10.28
2023-05-08T19:49:55.991Z,10.23
2023-05-08T19:52:23.116Z,10.15
2023-05-08T19:54:50.586Z,10.09
2023-05-08T19:57:17.676Z,10.14
2023-05-08T19:59:44.766Z,10.03
2023-05-08T20:02:12.188Z,10.03
2023-05-08T20:05:10.486Z,9.97
2023-05-08T20:07:29.470Z,9.91
2023-05-08T20:09:56.855Z,9.77
2023-05-08T20:12:23.828Z,9.78
2023-05-08T20:14:50.867Z,9.78
2023-05-08T20:17:18.226Z,9.77
2023-05-08T20:19:45.281Z,9.67
2023-05-08T20:22:12.325Z,9.60
2023-05-08T20:24:39.597Z,9.56
2023-05-08T20:27:06.708Z,9.50
2023-05-08T20:29:33.969Z,9.56
2023-05-08T20:32:02.249Z,9.56
2023-05-08T20:34:29.906Z,9.52
2023-05-08T20:36:59.233Z,9.48
2023-05-08T20:39:27.108Z,9.48
2023-05-08T20:41:54.176Z,9.39
2023-05-08T20:44:21.254Z,9.42
2023-05-08T20:46:48.989Z,9.39
2023-05-08T20:49:17.191Z,9.40
2023-05-08T20:51:44.394Z,9.38
2023-05-08T20:54:11.683Z,9.28
2023-05-08T20:56:38.788Z,9.25
2023-05-08T20:59:05.897Z,9.19
2023-05-08T21:01:33.353Z,9.22
2023-05-08T21:04:00.416Z,9.11
2023-05-08T21:06:27.591Z,9.10
2023-05-08T21:08:54.998Z,9.08
2023-05-08T21:11:22.209Z,9.20
2023-05-08T21:13:49.358Z,9.20
2023-05-08T21:16:16.867Z,9.12
2023-05-08T21:18:44.088Z,9.05
2023-05-08T21:21:18.831Z,9.07
2023-05-08T21:23:46.391Z,9.05
2023-05-08T21:26:13.448Z,8.97
2023-05-08T21:28:40.841Z,8.97
2023-05-08T21:31:08.265Z,8.94
2023-05-08T21:33:35.657Z,8.92
2023-05-08T21:36:02.827Z,8.84
2023-05-08T21:38:30.236Z,8.86
2023-05-08T21:40:57.368Z,8.77
2023-05-08T21:43:24.457Z,8.79
2023-05-08T21:45:51.819Z,8.81
2023-05-08T21:48:19.481Z,8.77
2023-05-08T21:50:46.451Z,8.72
2023-05-08T21:53:13.752Z,8.72
2023-05-08T21:55:41.025Z,8.69
2023-05-08T21:58:08.101Z,8.66
2023-05-08T22:00:35.522Z,8.65
2023-05-08T22:03:02.977Z,8.66
2023-05-08T22:05:30.049Z,8.57
2023-05-08T22:07:57.473Z,8.50
2023-05-08T22:10:25.637Z,8.56
2023-05-08T22:12:52.775Z,8.48
2023-05-08T22:15:29.675Z,8.42
2023-05-08T22:17:58.744Z,8.42
2023-05-08T22:20:26.020Z,8.38
2023-05-08T22:22:53.404Z,8.33
2023-05-08T22:25:21.949Z,8.36
2023-05-08T22:27:49.257Z,8.38
2023-05-08T22:30:16.322Z,8.35
2023-05-08T22:32:52.505Z,8.38
2023-05-08T22:35:21.336Z,8.41
2023-05-08T22:37:48.638Z,8.42
2023-05-08T22:40:15.736Z,8.42
2023-05-08T22:42:43.825Z,8.39
2023-05-08T22:45:12.195Z,8.33
2023-05-08T22:47:39.795Z,8.33
2023-05-08T22:50:09.147Z,8.25
2023-05-08T22:52:36.710Z,8.21
2023-05-08T22:55:04.974Z,8.13
2023-05-08T22:57:32.076Z,8.04
2023-05-08T22:59:59.401Z,8.05
2023-05-08T23:02:32.097Z,8.02
2023-05-08T23:05:00.234Z,7.88
2023-05-08T23:07:27.509Z,7.94
2023-05-08T23:09:54.503Z,7.97
2023-05-08T23:12:21.966Z,7.94
2023-05-08T23:14:48.981Z,8.02
2023-05-08T23:17:16.003Z,7.93
2023-05-08T23:19:43.352Z,7.87
2023-05-08T23:22:10.334Z,7.87
2023-05-08T23:24:37.459Z,7.73
2023-05-08T23:27:04.734Z,7.72
2023-05-08T23:29:31.761Z,7.82
2023-05-08T23:31:59.846Z,7.79
2023-05-08T23:34:27.196Z,7.79
2023-05-08T23:36:54.230Z,7.62
2023-05-08T23:39:21.338Z,7.60
2023-05-08T23:41:48.621Z,7.55
2023-05-08T23:44:15.681Z,7.51
2023-05-08T23:46:42.793Z,7.64
2023-05-08T23:49:10.300Z,7.60
2023-05-08T23:51:37.264Z,7.55
2023-05-08T23:54:04.983Z,7.55
2023-05-08T23:56:32.651Z,7.55
2023-05-08T23:58:59.692Z,7.45
